Time;durP1;ratioP1;P1;durP2;ratioP2;P2;SDS_P1;SDS_P2;PMS_P1;PMS_P2;Temp;Humidity;BMP_temperature;BMP_pressure;BME280_temperature;BME280_humidity;BME280_pressure;Samples;Min_cycle;Max_cycle;Signal;HPM_P1;HPM_P2
2023/12/14 00:01:31;;;;;;;16.03;6.80;;;4.90;99.90;;;;;;5071158;28;20221;-80
2023/12/14 00:03:58;;;;;;;15.23;7.20;;;4.80;99.90;;;;;;5072850;28;20205;-81
2023/12/14 00:06:25;;;;;;;17.07;8.20;;;4.80;99.90;;;;;;5069232;28;21718;-81
2023/12/14 00:08:53;;;;;;;17.03;7.83;;;4.80;99.90;;;;;;5062472;28;20569;-80
2023/12/14 00:11:20;;;;;;;15.40;6.77;;;4.80;99.90;;;;;;5063036;28;20240;-80
2023/12/14 00:13:46;;;;;;;15.53;7.27;;;4.70;99.90;;;;;;5063488;28;20209;-81
2023/12/14 00:16:13;;;;;;;13.17;6.30;;;4.70;99.90;;;;;;5065894;28;20199;-81
2023/12/14 00:18:40;;;;;;;14.87;6.60;;;4.70;99.90;;;;;;5064551;28;20217;-80
2023/12/14 00:21:07;;;;;;;14.33;6.30;;;4.70;99.90;;;;;;5065332;28;20571;-80
2023/12/14 00:23:35;;;;;;;15.33;7.63;;;4.70;99.90;;;;;;5066087;28;20582;-80
2023/12/14 00:26:04;;;;;;;11.80;6.70;;;4.70;99.90;;;;;;5066463;28;20205;-79
2023/12/14 00:28:30;;;;;;;17.20;6.80;;;4.70;99.90;;;;;;5067594;28;20206;-81
2023/12/14 00:30:57;;;;;;;14.17;6.90;;;4.70;99.90;;;;;;5064685;28;20229;-81
2023/12/14 00:33:24;;;;;;;11.90;5.67;;;4.70;99.90;;;;;;5064265;28;20203;-81
2023/12/14 00:35:51;;;;;;;12.93;6.83;;;4.80;99.90;;;;;;5066169;28;21635;-80
2023/12/14 00:38:18;;;;;;;13.10;6.73;;;4.70;99.90;;;;;;5069916;28;20202;-80
2023/12/14 00:40:45;;;;;;;12.03;6.60;;;4.70;99.90;;;;;;5068205;28;20230;-80
2023/12/14 00:43:13;;;;;;;13.10;6.73;;;4.60;99.90;;;;;;5066502;28;20226;-81
2023/12/14 00:45:41;;;;;;;13.90;5.83;;;4.60;99.90;;;;;;5066066;28;20206;-80
2023/12/14 00:48:07;;;;;;;13.00;6.33;;;4.50;99.90;;;;;;5066291;28;20226;-81
2023/12/14 00:50:34;;;;;;;14.93;7.03;;;4.50;99.90;;;;;;5063536;28;20608;-81
2023/12/14 00:53:01;;;;;;;12.10;6.50;;;4.60;99.90;;;;;;5061513;28;20244;-80
2023/12/14 00:55:28;;;;;;;13.37;6.40;;;4.50;99.90;;;;;;5068065;28;20293;-79
2023/12/14 00:57:55;;;;;;;10.53;6.00;;;4.50;99.90;;;;;;5066564;28;20212;-80
2023/12/14 01:00:23;;;;;;;12.53;6.20;;;4.50;99.90;;;;;;5066353;28;20756;-79
2023/12/14 01:02:50;;;;;;;13.93;6.90;;;4.50;99.90;;;;;;5068882;28;20543;-80
2023/12/14 01:05:17;;;;;;;14.93;6.83;;;4.50;99.90;;;;;;5068000;28;20202;-81
2023/12/14 01:07:44;;;;;;;12.87;6.87;;;4.50;99.90;;;;;;5061444;28;20195;-79
2023/12/14 01:10:11;;;;;;;12.00;6.63;;;4.50;99.90;;;;;;5062210;28;20218;-80
2023/12/14 01:12:38;;;;;;;12.17;6.17;;;4.50;99.90;;;;;;5063427;28;20215;-79
2023/12/14 01:15:06;;;;;;;15.23;7.40;;;4.50;99.90;;;;;;5063605;28;20206;-80
2023/12/14 01:17:36;;;;;;;13.80;7.63;;;4.40;99.90;;;;;;5064148;28;20216;-81
2023/12/14 01:20:05;;;;;;;12.07;6.20;;;4.40;99.90;;;;;;5063065;28;20257;-81
2023/12/14 01:22:32;;;;;;;13.93;6.93;;;4.40;99.90;;;;;;5061182;28;20633;-81
2023/12/14 01:24:59;;;;;;;13.73;6.80;;;4.40;99.90;;;;;;5065223;28;20198;-80
2023/12/14 01:27:26;;;;;;;11.77;6.10;;;4.60;99.90;;;;;;5064478;28;20218;-82
2023/12/14 01:29:53;;;;;;;10.37;5.90;;;4.40;99.90;;;;;;5063082;28;20705;-79
2023/12/14 01:32:19;;;;;;;10.47;5.60;;;4.30;99.90;;;;;;5067064;28;20226;-81
2023/12/14 01:34:47;;;;;;;12.80;6.07;;;4.60;99.90;;;;;;5065841;28;20209;-81
2023/12/14 01:37:14;;;;;;;14.00;7.07;;;4.40;99.90;;;;;;5062410;28;20203;-82
2023/12/14 01:39:41;;;;;;;14.10;6.30;;;4.30;99.90;;;;;;5059282;28;20577;-79
2023/12/14 01:42:08;;;;;;;13.00;6.43;;;4.20;99.90;;;;;;5069338;28;20202;-79
2023/12/14 01:44:35;;;;;;;10.70;5.80;;;4.20;99.90;;;;;;5069285;28;20208;-79
2023/12/14 01:47:01;;;;;;;11.40;6.00;;;4.10;99.90;;;;;;5067957;28;20204;-78
2023/12/14 01:49:28;;;;;;;13.07;6.20;;;4.20;99.90;;;;;;5066474;28;20273;-80
2023/12/14 01:51:56;;;;;;;11.60;6.20;;;4.10;99.90;;;;;;5064165;28;20234;-79
2023/12/14 01:54:23;;;;;;;12.70;6.23;;;4.20;99.90;;;;;;5064239;28;20203;-79
2023/12/14 01:56:50;;;;;;;14.20;6.70;;;4.10;99.90;;;;;;5059888;28;20203;-80
2023/12/14 01:59:16;;;;;;;13.27;6.43;;;4.10;99.90;;;;;;5065802;28;20207;-82
2023/12/14 02:01:45;;;;;;;12.37;6.73;;;4.10;99.90;;;;;;5074125;28;20225;-80
2023/12/14 02:04:12;;;;;;;11.83;6.90;;;4.10;99.90;;;;;;5075126;28;20203;-82
2023/12/14 02:06:40;;;;;;;13.73;6.63;;;4.10;99.90;;;;;;5065541;28;20203;-80
2023/12/14 02:09:08;;;;;;;15.47;7.93;;;4.10;99.90;;;;;;5060902;28;20582;-81
2023/12/14 02:11:35;;;;;;;13.73;7.17;;;4.10;99.90;;;;;;5065594;28;20227;-80
2023/12/14 02:14:05;;;;;;;16.50;7.60;;;4.10;99.90;;;;;;5070115;28;20206;-80
2023/12/14 02:16:32;;;;;;;15.97;7.53;;;4.10;99.90;;;;;;5065690;28;20874;-81
2023/12/14 02:18:59;;;;;;;14.13;7.83;;;4.10;99.90;;;;;;5067126;28;20206;-79
2023/12/14 02:21:26;;;;;;;15.03;8.03;;;4.20;99.90;;;;;;5065996;28;20229;-80
2023/12/14 02:23:54;;;;;;;15.43;8.07;;;4.20;99.90;;;;;;5064395;28;20195;-80
2023/12/14 02:26:21;;;;;;;13.07;7.10;;;4.10;99.90;;;;;;5076181;28;20205;-79
2023/12/14 02:28:48;;;;;;;12.73;7.03;;;4.10;99.90;;;;;;5069306;28;20290;-83
2023/12/14 02:31:14;;;;;;;13.10;7.40;;;4.10;99.90;;;;;;5077206;28;20218;-81
2023/12/14 02:33:41;;;;;;;15.97;8.73;;;4.00;99.90;;;;;;5069346;28;20209;-82
2023/12/14 02:36:08;;;;;;;13.13;6.70;;;4.00;99.90;;;;;;5074729;28;20210;-85
2023/12/14 02:38:35;;;;;;;14.43;7.13;;;4.00;99.90;;;;;;5071554;28;20208;-81
2023/12/14 02:41:04;;;;;;;12.30;6.33;;;4.10;99.90;;;;;;5074167;28;20215;-79
2023/12/14 02:43:30;;;;;;;10.57;6.07;;;4.00;99.90;;;;;;5072690;28;20194;-81
2023/12/14 02:46:01;;;;;;;11.07;6.57;;;4.00;99.90;;;;;;5064700;28;20201;-79
2023/12/14 02:48:28;;;;;;;11.83;5.93;;;4.00;99.90;;;;;;5072508;28;20206;-79
2023/12/14 02:50:55;;;;;;;10.87;6.07;;;4.00;99.90;;;;;;5064529;28;20727;-80
2023/12/14 02:53:22;;;;;;;12.43;6.53;;;4.00;99.90;;;;;;5072495;28;20234;-81
2023/12/14 02:55:49;;;;;;;13.30;6.67;;;4.00;99.90;;;;;;5076092;28;20468;-83
2023/12/14 02:58:17;;;;;;;11.67;6.63;;;4.00;99.90;;;;;;5076773;28;20198;-82
2023/12/14 03:00:44;;;;;;;9.93;6.00;;;4.00;99.90;;;;;;5061703;28;20263;-81
2023/12/14 03:03:10;;;;;;;12.70;6.40;;;4.00;99.90;;;;;;5072043;28;20201;-78
2023/12/14 03:05:37;;;;;;;10.17;5.80;;;4.00;99.90;;;;;;5069388;28;20209;-79
2023/12/14 03:08:04;;;;;;;10.10;6.20;;;4.10;99.90;;;;;;5066502;28;20666;-80
2023/12/14 03:10:31;;;;;;;11.10;5.80;;;4.00;99.90;;;;;;5068362;28;20224;-80
2023/12/14 03:12:58;;;;;;;10.60;6.10;;;4.00;99.90;;;;;;5073420;28;20218;-81
2023/12/14 03:15:26;;;;;;;10.07;5.73;;;3.90;99.90;;;;;;5065025;28;20206;-79
2023/12/14 03:17:53;;;;;;;10.83;5.40;;;3.90;99.90;;;;;;5063433;28;20210;-80
2023/12/14 03:20:19;;;;;;;9.67;5.67;;;3.90;99.90;;;;;;5057959;28;20615;-79
2023/12/14 03:22:46;;;;;;;10.30;5.73;;;3.80;99.90;;;;;;5060263;28;20195;-80
2023/12/14 03:25:14;;;;;;;11.70;6.40;;;3.80;99.90;;;;;;5066820;28;20642;-79
2023/12/14 03:27:41;;;;;;;10.63;6.50;;;3.80;99.90;;;;;;5063410;28;20208;-80
2023/12/14 03:30:09;;;;;;;11.33;6.40;;;3.80;99.90;;;;;;5067112;28;20214;-80
2023/12/14 03:32:38;;;;;;;12.47;6.97;;;3.80;99.90;;;;;;5067511;28;20272;-80
2023/12/14 03:35:06;;;;;;;11.60;6.23;;;3.80;99.90;;;;;;5066476;28;20203;-80
2023/12/14 03:37:35;;;;;;;12.90;7.37;;;3.80;99.90;;;;;;5066791;28;20214;-80
2023/12/14 03:40:02;;;;;;;14.90;7.53;;;3.80;99.90;;;;;;5066068;28;20219;-80
2023/12/14 03:42:28;;;;;;;13.43;7.73;;;3.90;99.90;;;;;;5066800;28;20648;-80
2023/12/14 03:44:55;;;;;;;15.77;8.43;;;3.80;99.90;;;;;;5066631;28;20674;-80
2023/12/14 03:47:22;;;;;;;15.07;8.07;;;3.80;99.90;;;;;;5070271;28;20577;-80
2023/12/14 03:49:51;;;;;;;15.47;7.93;;;3.80;99.90;;;;;;5068149;28;20264;-80
2023/12/14 03:52:17;;;;;;;14.73;9.33;;;3.90;99.90;;;;;;5068169;28;20222;-80
2023/12/14 03:54:44;;;;;;;17.23;9.37;;;3.90;99.90;;;;;;5068351;28;20202;-80
2023/12/14 03:57:11;;;;;;;16.00;8.73;;;3.90;99.90;;;;;;5066322;28;20209;-80
2023/12/14 03:59:40;;;;;;;14.37;7.87;;;3.90;99.90;;;;;;5067974;28;20206;-80
2023/12/14 04:02:07;;;;;;;15.63;8.00;;;3.90;99.90;;;;;;5067405;28;20198;-80
2023/12/14 04:04:33;;;;;;;19.03;9.07;;;4.00;99.90;;;;;;5066670;28;20659;-79
2023/12/14 04:07:01;;;;;;;16.27;8.17;;;4.00;99.90;;;;;;5071997;28;20544;-80
2023/12/14 04:09:28;;;;;;;15.10;8.00;;;4.00;99.90;;;;;;5056285;28;20216;-79
2023/12/14 04:11:55;;;;;;;17.27;9.70;;;4.00;99.90;;;;;;5065306;28;20206;-80
2023/12/14 04:14:22;;;;;;;18.77;9.30;;;4.00;99.90;;;;;;5055477;28;20211;-78
2023/12/14 04:16:49;;;;;;;19.50;9.43;;;4.00;99.90;;;;;;5064387;28;20202;-80
2023/12/14 04:19:15;;;;;;;20.93;9.13;;;4.00;99.90;;;;;;5060839;28;20210;-79
2023/12/14 04:21:42;;;;;;;18.27;9.60;;;4.10;99.90;;;;;;5058925;28;20218;-80
2023/12/14 04:24:12;;;;;;;18.70;9.80;;;4.10;99.90;;;;;;5061490;28;20288;-80
2023/12/14 04:26:39;;;;;;;18.63;9.30;;;4.10;99.90;;;;;;5060875;28;20294;-81
2023/12/14 04:29:06;;;;;;;18.80;9.23;;;4.00;99.90;;;;;;5062137;28;20209;-80
2023/12/14 04:31:33;;;;;;;18.40;9.17;;;4.00;99.90;;;;;;5063506;28;20593;-81
2023/12/14 04:34:00;;;;;;;18.57;8.87;;;4.00;99.90;;;;;;5063168;28;20226;-81
2023/12/14 04:36:27;;;;;;;19.93;8.90;;;4.00;99.90;;;;;;5066655;28;20198;-80
2023/12/14 04:38:53;;;;;;;19.17;9.70;;;4.00;99.90;;;;;;5065026;28;20205;-80
2023/12/14 04:41:22;;;;;;;20.57;9.83;;;4.10;99.90;;;;;;5068910;28;20224;-81
2023/12/14 04:43:48;;;;;;;22.77;8.73;;;4.10;99.90;;;;;;5068812;28;20198;-81
2023/12/14 04:46:15;;;;;;;20.00;11.17;;;4.00;99.90;;;;;;5069395;28;20209;-80
2023/12/14 04:48:42;;;;;;;17.50;9.53;;;4.00;99.90;;;;;;5069081;28;20208;-81
2023/12/14 04:51:12;;;;;;;18.93;10.10;;;3.90;99.90;;;;;;5071217;28;20242;-80
2023/12/14 04:53:39;;;;;;;17.53;9.80;;;4.00;99.90;;;;;;5075818;28;20602;-81
2023/12/14 04:56:10;;;;;;;18.10;9.53;;;3.90;99.90;;;;;;5072580;28;20201;-81
2023/12/14 04:58:39;;;;;;;18.23;8.97;;;3.90;99.90;;;;;;5068665;28;20281;-81
2023/12/14 05:01:06;;;;;;;19.90;9.63;;;3.90;99.90;;;;;;5073092;28;20228;-80
2023/12/14 05:03:34;;;;;;;20.33;9.73;;;3.90;99.90;;;;;;5075231;28;20613;-81
2023/12/14 05:06:00;;;;;;;18.67;10.03;;;3.90;99.90;;;;;;5073838;28;20202;-80
2023/12/14 05:08:27;;;;;;;20.07;10.77;;;3.80;99.90;;;;;;5059704;28;20270;-80
2023/12/14 05:10:54;;;;;;;22.13;10.20;;;3.80;99.90;;;;;;5061165;28;20219;-80
2023/12/14 05:13:21;;;;;;;23.00;10.87;;;3.80;99.90;;;;;;5058787;28;20234;-81
2023/12/14 05:15:49;;;;;;;20.93;10.47;;;3.70;99.90;;;;;;5057814;28;20671;-80
2023/12/14 05:18:16;;;;;;;21.87;10.50;;;3.90;99.90;;;;;;5058701;28;20205;-80
2023/12/14 05:20:42;;;;;;;20.57;9.47;;;3.70;99.90;;;;;;5060320;28;20233;-80
2023/12/14 05:23:09;;;;;;;18.93;10.03;;;3.80;99.90;;;;;;5061478;28;20195;-80
2023/12/14 05:25:36;;;;;;;21.70;9.90;;;3.80;99.90;;;;;;5065818;28;20202;-80
2023/12/14 05:28:03;;;;;;;18.37;9.37;;;3.80;99.90;;;;;;5061747;28;20209;-80
2023/12/14 05:30:30;;;;;;;17.77;10.07;;;3.90;99.90;;;;;;5064327;28;20607;-80
2023/12/14 05:32:58;;;;;;;19.60;9.30;;;3.90;99.90;;;;;;5067049;28;20218;-80
2023/12/14 05:35:25;;;;;;;16.07;8.80;;;3.80;99.90;;;;;;5067309;28;20620;-80
2023/12/14 05:37:52;;;;;;;16.77;8.73;;;3.80;99.90;;;;;;5071461;28;20206;-80
2023/12/14 05:40:18;;;;;;;16.13;8.67;;;3.90;99.90;;;;;;5070266;28;20732;-80
2023/12/14 05:42:45;;;;;;;14.73;8.53;;;3.90;99.90;;;;;;5072271;28;20194;-80
2023/12/14 05:45:12;;;;;;;14.17;7.73;;;4.10;99.90;;;;;;5074063;28;20195;-81
2023/12/14 05:47:41;;;;;;;12.77;7.40;;;4.00;99.90;;;;;;5077323;28;20204;-80
2023/12/14 05:50:10;;;;;;;15.30;7.97;;;3.90;99.90;;;;;;5073731;28;20242;-80
2023/12/14 05:52:37;;;;;;;13.23;7.10;;;3.90;99.90;;;;;;5071790;28;20222;-80
2023/12/14 05:55:04;;;;;;;15.23;7.80;;;3.90;99.90;;;;;;5075135;28;20213;-81
2023/12/14 05:57:31;;;;;;;13.67;7.10;;;3.90;99.90;;;;;;5078349;28;20289;-80
2023/12/14 05:59:58;;;;;;;16.23;8.70;;;3.90;99.90;;;;;;5077090;28;20219;-80
2023/12/14 06:02:24;;;;;;;15.87;8.20;;;3.90;99.90;;;;;;5076718;28;20207;-81
2023/12/14 06:04:51;;;;;;;15.50;7.70;;;3.90;99.90;;;;;;5078336;28;20645;-81
2023/12/14 06:07:19;;;;;;;14.90;8.57;;;4.30;99.90;;;;;;5069152;28;20226;-81
2023/12/14 06:09:46;;;;;;;15.87;8.67;;;4.00;99.90;;;;;;5060754;28;20233;-81
2023/12/14 06:12:13;;;;;;;16.37;8.53;;;4.00;99.90;;;;;;5061536;28;20681;-81
2023/12/14 06:14:40;;;;;;;16.60;8.57;;;4.00;99.90;;;;;;5060902;28;20219;-81
2023/12/14 06:17:07;;;;;;;14.83;8.13;;;4.00;99.90;;;;;;5063968;28;20209;-80
2023/12/14 06:19:34;;;;;;;14.23;8.60;;;4.00;99.90;;;;;;5063529;28;20202;-81
2023/12/14 06:22:01;;;;;;;16.63;8.23;;;4.20;99.90;;;;;;5064094;28;20286;-80
2023/12/14 06:24:29;;;;;;;13.00;7.03;;;4.00;99.90;;;;;;5065957;28;20200;-80
2023/12/14 06:26:56;;;;;;;13.07;7.37;;;3.90;99.90;;;;;;5070576;28;20225;-81
2023/12/14 06:29:22;;;;;;;13.80;7.93;;;3.90;99.90;;;;;;5075407;28;20202;-81
2023/12/14 06:31:49;;;;;;;14.10;8.30;;;4.00;99.90;;;;;;5071432;28;20218;-81
2023/12/14 06:34:16;;;;;;;12.87;7.30;;;4.00;99.90;;;;;;5072343;28;20248;-80
2023/12/14 06:36:44;;;;;;;13.47;8.10;;;3.90;99.90;;;;;;5069338;28;20194;-80
2023/12/14 06:39:11;;;;;;;14.10;7.30;;;4.00;99.90;;;;;;5069105;28;20592;-80
2023/12/14 06:41:39;;;;;;;13.70;8.30;;;4.00;99.90;;;;;;5071711;28;20218;-80
2023/12/14 06:44:09;;;;;;;13.70;7.83;;;4.00;99.90;;;;;;5069654;28;20213;-81
2023/12/14 06:46:35;;;;;;;12.70;7.63;;;4.00;99.90;;;;;;5070162;28;20202;-81
2023/12/14 06:49:02;;;;;;;17.03;8.70;;;4.00;99.90;;;;;;5071627;28;20281;-81
2023/12/14 06:51:29;;;;;;;15.43;8.50;;;4.00;99.90;;;;;;5072989;28;20237;-81
2023/12/14 06:53:56;;;;;;;16.67;8.10;;;3.90;99.90;;;;;;5072412;28;20226;-81
2023/12/14 06:56:24;;;;;;;19.73;10.00;;;4.00;99.90;;;;;;5073003;28;20219;-81
2023/12/14 06:58:52;;;;;;;16.43;8.83;;;4.00;99.90;;;;;;5076414;28;20213;-80
2023/12/14 07:01:19;;;;;;;17.43;8.70;;;4.00;99.90;;;;;;5074170;28;20329;-80
2023/12/14 07:03:46;;;;;;;16.47;8.83;;;4.00;99.90;;;;;;5075483;28;20198;-81
2023/12/14 07:06:14;;;;;;;16.13;8.30;;;4.10;99.90;;;;;;5075379;28;20668;-80
2023/12/14 07:08:41;;;;;;;17.47;8.23;;;4.00;99.90;;;;;;5065898;28;20202;-80
2023/12/14 07:11:08;;;;;;;15.10;7.70;;;3.90;99.90;;;;;;5072353;28;20301;-80
2023/12/14 07:13:36;;;;;;;14.20;8.27;;;4.00;99.90;;;;;;5065842;28;20215;-80
2023/12/14 07:16:07;;;;;;;14.27;7.70;;;4.00;99.90;;;;;;5067627;28;20206;-80
2023/12/14 07:18:34;;;;;;;13.33;7.83;;;4.00;99.90;;;;;;5064735;28;20219;-81
2023/12/14 07:21:01;;;;;;;14.00;7.80;;;4.20;99.90;;;;;;5065007;28;20646;-80
2023/12/14 07:23:28;;;;;;;13.43;7.50;;;3.90;99.90;;;;;;5066014;28;20190;-81
2023/12/14 07:25:55;;;;;;;13.33;7.10;;;3.90;99.90;;;;;;5067055;28;20209;-80
2023/12/14 07:28:22;;;;;;;12.63;7.47;;;4.00;99.90;;;;;;5069162;28;20206;-80
2023/12/14 07:30:50;;;;;;;12.57;7.20;;;4.00;99.90;;;;;;5067295;28;20223;-80
2023/12/14 07:33:18;;;;;;;10.87;7.03;;;4.00;99.90;;;;;;5074558;28;20573;-80
2023/12/14 07:35:45;;;;;;;12.07;6.90;;;4.00;99.90;;;;;;5071765;28;20198;-80
2023/12/14 07:38:13;;;;;;;12.03;6.73;;;4.00;99.90;;;;;;5077221;28;20201;-80
2023/12/14 07:40:40;;;;;;;12.93;7.00;;;4.00;99.90;;;;;;5071527;28;20227;-80
2023/12/14 07:43:07;;;;;;;14.73;7.27;;;4.00;99.90;;;;;;5067328;28;20271;-80
2023/12/14 07:45:35;;;;;;;12.73;6.57;;;4.00;99.90;;;;;;5077156;28;20580;-80
2023/12/14 07:48:02;;;;;;;13.47;6.93;;;4.00;99.90;;;;;;5070291;28;20285;-80
2023/12/14 07:50:30;;;;;;;12.33;7.50;;;4.00;99.90;;;;;;5069740;28;20321;-80
2023/12/14 07:52:57;;;;;;;13.73;7.57;;;4.00;99.90;;;;;;5070112;28;20204;-81
2023/12/14 07:55:24;;;;;;;14.00;7.27;;;4.00;99.90;;;;;;5073417;28;20206;-80
2023/12/14 07:57:51;;;;;;;14.83;7.90;;;4.10;99.90;;;;;;5075287;28;20282;-80
2023/12/14 08:00:18;;;;;;;15.63;7.70;;;4.00;99.90;;;;;;5074385;28;20231;-80
2023/12/14 08:02:45;;;;;;;16.70;8.20;;;4.00;99.90;;;;;;5076792;28;20606;-80
2023/12/14 08:05:11;;;;;;;15.00;7.43;;;4.00;99.90;;;;;;5074583;28;20194;-80
2023/12/14 08:07:40;;;;;;;15.53;8.03;;;4.00;99.90;;;;;;5071924;28;20285;-80
2023/12/14 08:10:07;;;;;;;15.87;8.07;;;4.00;99.90;;;;;;5059268;28;20317;-80
2023/12/14 08:12:34;;;;;;;15.40;7.70;;;4.10;99.90;;;;;;5067432;28;20676;-80
2023/12/14 08:15:01;;;;;;;15.63;8.37;;;4.10;99.90;;;;;;5068452;28;20691;-80
2023/12/14 08:17:28;;;;;;;17.43;9.67;;;4.10;99.90;;;;;;5057799;28;20290;-80
2023/12/14 08:19:55;;;;;;;16.33;8.33;;;4.10;99.90;;;;;;5066416;28;20218;-80
2023/12/14 08:22:22;;;;;;;15.60;8.57;;;4.20;99.90;;;;;;5062499;28;20203;-80
2023/12/14 08:24:50;;;;;;;13.77;7.90;;;4.00;99.90;;;;;;5065694;28;20222;-80
2023/12/14 08:27:17;;;;;;;13.93;7.77;;;4.00;99.90;;;;;;5064800;28;20264;-80
2023/12/14 08:29:45;;;;;;;14.03;7.77;;;4.00;99.90;;;;;;5060245;28;20199;-81
2023/12/14 08:32:12;;;;;;;12.17;6.87;;;4.10;99.90;;;;;;5061160;28;20561;-80
2023/12/14 08:34:38;;;;;;;14.13;7.60;;;4.10;99.90;;;;;;5063969;28;20688;-80
2023/12/14 08:37:05;;;;;;;14.10;7.33;;;4.10;99.90;;;;;;5067558;28;20199;-81
2023/12/14 08:39:32;;;;;;;13.33;7.53;;;4.20;99.90;;;;;;5071838;28;20205;-80
2023/12/14 08:42:00;;;;;;;12.73;7.40;;;4.10;99.90;;;;;;5065873;28;20215;-80
2023/12/14 08:44:27;;;;;;;13.50;7.33;;;4.10;99.90;;;;;;5070224;28;20233;-80
2023/12/14 08:46:54;;;;;;;14.70;7.90;;;4.10;99.90;;;;;;5069925;28;20195;-80
2023/12/14 08:49:23;;;;;;;13.70;7.23;;;4.10;99.90;;;;;;5072404;28;20572;-80
2023/12/14 08:51:49;;;;;;;11.17;6.90;;;4.10;99.90;;;;;;5074965;28;20691;-80
2023/12/14 08:54:17;;;;;;;9.57;6.00;;;4.10;99.90;;;;;;5076287;28;20230;-80
2023/12/14 08:56:43;;;;;;;10.30;6.00;;;4.30;99.90;;;;;;5077888;28;20237;-80
2023/12/14 08:59:12;;;;;;;9.57;5.60;;;4.20;99.90;;;;;;5074913;28;20656;-80
2023/12/14 09:01:39;;;;;;;9.07;5.97;;;4.20;99.90;;;;;;5070916;28;20214;-80
2023/12/14 09:04:06;;;;;;;11.13;6.20;;;4.20;99.90;;;;;;5076787;28;20197;-79
2023/12/14 09:06:32;;;;;;;9.63;5.73;;;4.20;99.90;;;;;;5078500;28;20194;-80
2023/12/14 09:08:59;;;;;;;8.67;5.00;;;4.20;99.90;;;;;;5078170;28;20212;-80
2023/12/14 09:11:26;;;;;;;11.23;6.10;;;4.20;99.90;;;;;;5062580;28;20227;-81
2023/12/14 09:13:53;;;;;;;8.97;5.50;;;4.10;99.90;;;;;;5057114;28;20290;-81
2023/12/14 09:16:21;;;;;;;7.90;5.00;;;4.50;99.90;;;;;;5063683;28;20211;-80
2023/12/14 09:18:48;;;;;;;9.70;5.37;;;4.20;99.90;;;;;;5056863;28;20203;-81
2023/12/14 09:21:15;;;;;;;8.23;5.40;;;4.10;99.90;;;;;;5058190;28;20218;-80
2023/12/14 09:23:42;;;;;;;9.50;5.40;;;4.10;99.90;;;;;;5058497;28;20214;-80
2023/12/14 09:26:10;;;;;;;8.70;5.07;;;4.20;99.90;;;;;;5059146;28;20205;-80
2023/12/14 09:28:37;;;;;;;8.87;5.60;;;4.10;99.90;;;;;;5061825;28;20214;-80
2023/12/14 09:31:04;;;;;;;7.73;4.80;;;4.60;99.90;;;;;;5063226;28;20588;-80
2023/12/14 09:33:32;;;;;;;9.50;5.10;;;4.20;99.90;;;;;;5065721;28;20242;-80
2023/12/14 09:35:59;;;;;;;7.83;4.70;;;4.20;99.90;;;;;;5063844;28;20202;-80
2023/12/14 09:38:26;;;;;;;8.30;4.73;;;4.20;99.90;;;;;;5066129;28;20832;-80
2023/12/14 09:40:53;;;;;;;8.47;4.70;;;4.40;99.90;;;;;;5065091;28;20222;-81
2023/12/14 09:43:20;;;;;;;7.77;4.90;;;4.30;99.90;;;;;;5064909;28;20657;-80
2023/12/14 09:45:48;;;;;;;7.00;4.33;;;4.30;99.90;;;;;;5065941;28;20195;-80
2023/12/14 09:48:16;;;;;;;7.97;4.87;;;4.20;99.90;;;;;;5067375;28;20708;-80
2023/12/14 09:50:46;;;;;;;8.27;4.93;;;4.20;99.90;;;;;;5067815;28;20262;-80
2023/12/14 09:53:13;;;;;;;9.77;5.63;;;4.20;99.90;;;;;;5065332;28;20203;-80
2023/12/14 09:55:40;;;;;;;10.50;5.10;;;4.30;99.90;;;;;;5071141;28;20226;-80
2023/12/14 09:58:09;;;;;;;10.73;5.30;;;4.30;99.90;;;;;;5068210;28;20232;-81
2023/12/14 10:00:37;;;;;;;6.17;4.00;;;4.30;99.90;;;;;;5071732;28;20246;-80
2023/12/14 10:03:25;;;;;;;7.23;4.87;;;4.30;99.90;;;;;;5071900;28;20202;-79
2023/12/14 10:05:55;;;;;;;8.23;4.90;;;4.40;99.90;;;;;;5068108;28;20199;-80
2023/12/14 10:08:22;;;;;;;7.60;4.60;;;4.40;99.90;;;;;;5071803;28;20209;-80
2023/12/14 10:10:52;;;;;;;8.73;5.27;;;4.50;99.90;;;;;;5074425;28;20263;-80
2023/12/14 10:13:20;;;;;;;7.10;4.93;;;4.50;99.90;;;;;;5058913;28;20229;-80
2023/12/14 10:15:47;;;;;;;8.03;4.73;;;4.60;99.90;;;;;;5056359;28;20215;-81
2023/12/14 10:18:22;;;;;;;8.00;4.47;;;4.60;99.90;;;;;;5064549;28;20629;-81
2023/12/14 10:20:49;;;;;;;7.97;4.97;;;4.50;99.90;;;;;;5057934;28;20222;-81
2023/12/14 10:23:18;;;;;;;12.10;4.57;;;4.60;99.90;;;;;;5058890;28;20205;-80
2023/12/14 10:25:45;;;;;;;7.40;4.20;;;4.50;99.90;;;;;;5058557;28;20261;-80
2023/12/14 10:28:14;;;;;;;8.03;5.10;;;4.50;99.90;;;;;;5060265;28;20669;-81
2023/12/14 10:30:41;;;;;;;9.27;5.37;;;4.50;99.90;;;;;;5064866;28;20236;-80
2023/12/14 10:33:08;;;;;;;9.03;4.60;;;4.50;99.90;;;;;;5066489;28;20195;-81
2023/12/14 10:35:35;;;;;;;10.40;5.60;;;4.60;99.90;;;;;;5069103;28;20317;-80
2023/12/14 10:38:04;;;;;;;7.23;4.80;;;4.50;99.90;;;;;;5068608;28;20199;-81
2023/12/14 10:40:33;;;;;;;9.50;5.37;;;4.50;99.90;;;;;;5075231;28;20223;-80
2023/12/14 10:43:01;;;;;;;8.13;4.50;;;4.50;99.90;;;;;;5069758;28;20655;-80
2023/12/14 10:45:32;;;;;;;10.20;5.60;;;4.50;99.90;;;;;;5073960;28;20207;-81
2023/12/14 10:48:00;;;;;;;10.63;5.40;;;4.60;99.90;;;;;;5073841;28;20209;-80
2023/12/14 10:50:30;;;;;;;8.23;4.90;;;4.70;99.90;;;;;;5076840;28;20235;-81
2023/12/14 10:52:57;;;;;;;9.80;5.00;;;4.50;99.90;;;;;;5075984;28;20651;-80
2023/12/14 10:55:30;;;;;;;10.77;5.67;;;4.60;99.90;;;;;;5077201;28;20226;-81
2023/12/14 10:57:58;;;;;;;10.33;5.00;;;4.70;99.90;;;;;;5079219;28;20226;-80
2023/12/14 11:00:25;;;;;;;10.73;5.40;;;4.60;99.90;;;;;;5080882;28;20701;-81
2023/12/14 11:02:52;;;;;;;7.60;4.97;;;4.70;99.90;;;;;;5081479;28;20222;-81
2023/12/14 11:05:22;;;;;;;8.17;5.13;;;4.60;99.90;;;;;;5079079;28;20198;-81
2023/12/14 11:07:53;;;;;;;8.37;4.67;;;4.60;99.90;;;;;;5079954;28;20187;-81
2023/12/14 11:10:24;;;;;;;8.83;5.07;;;4.80;99.90;;;;;;5077744;28;20230;-81
2023/12/14 11:13:02;;;;;;;10.60;5.07;;;4.70;99.90;;;;;;5079713;28;20290;-80
2023/12/14 11:15:30;;;;;;;8.67;5.17;;;4.70;99.90;;;;;;5070138;28;20221;-81
2023/12/14 11:18:26;;;;;;;10.77;5.43;;;5.00;99.90;;;;;;5063814;28;20282;-80
2023/12/14 11:20:55;;;;;;;8.47;4.90;;;4.60;99.90;;;;;;5069949;28;20218;-81
2023/12/14 11:23:34;;;;;;;10.17;5.03;;;4.60;99.90;;;;;;5072828;28;20273;-81
2023/12/14 11:26:04;;;;;;;6.87;4.43;;;4.70;99.90;;;;;;5070981;28;20179;-80
2023/12/14 11:28:33;;;;;;;9.63;5.40;;;4.70;99.90;;;;;;5069464;28;20210;-81
2023/12/14 11:31:02;;;;;;;9.27;5.17;;;4.70;99.90;;;;;;5069380;28;20264;-81
2023/12/14 11:33:29;;;;;;;8.93;5.10;;;4.70;99.90;;;;;;5077468;28;20215;-80
2023/12/14 11:35:56;;;;;;;10.33;6.20;;;4.60;99.90;;;;;;5073933;28;20225;-81
2023/12/14 11:38:25;;;;;;;9.67;5.70;;;4.70;99.90;;;;;;5071981;28;20214;-81
2023/12/14 11:40:52;;;;;;;11.37;5.97;;;4.70;99.90;;;;;;5071856;28;20293;-80
2023/12/14 11:43:21;;;;;;;8.20;5.37;;;4.70;99.90;;;;;;5077026;28;20684;-80
2023/12/14 11:45:49;;;;;;;9.90;5.30;;;4.70;99.90;;;;;;5071379;28;20203;-80
2023/12/14 11:48:16;;;;;;;9.93;5.83;;;4.70;99.90;;;;;;5072957;28;20229;-81
2023/12/14 11:50:44;;;;;;;10.00;5.83;;;4.70;99.90;;;;;;5076810;28;20229;-81
2023/12/14 11:53:11;;;;;;;9.13;5.80;;;4.60;99.90;;;;;;5074894;28;20233;-80
2023/12/14 11:55:39;;;;;;;10.77;6.23;;;4.60;99.90;;;;;;5078285;28;20294;-81
2023/12/14 11:58:07;;;;;;;13.17;5.90;;;4.60;99.90;;;;;;5077193;28;20289;-80
2023/12/14 12:00:37;;;;;;;10.57;5.70;;;4.60;99.90;;;;;;5077546;28;20222;-80
2023/12/14 12:03:14;;;;;;;9.23;5.50;;;4.70;99.90;;;;;;5076977;28;20669;-80
2023/12/14 12:05:42;;;;;;;9.93;5.80;;;4.80;99.90;;;;;;5078077;28;20210;-80
2023/12/14 12:08:10;;;;;;;18.73;8.03;;;4.60;99.90;;;;;;5077892;28;20249;-79
2023/12/14 12:10:38;;;;;;;11.23;6.40;;;4.70;99.90;;;;;;5077163;28;20282;-80
2023/12/14 12:13:07;;;;;;;12.83;7.40;;;4.70;99.90;;;;;;5077957;28;20281;-80
2023/12/14 12:15:35;;;;;;;12.57;7.17;;;4.60;99.90;;;;;;5076386;28;20225;-80
2023/12/14 12:18:05;;;;;;;11.67;6.70;;;4.60;99.90;;;;;;5073403;28;20199;-81
2023/12/14 12:20:33;;;;;;;12.40;6.33;;;4.70;99.90;;;;;;5060965;28;20571;-81
2023/12/14 12:23:00;;;;;;;9.23;5.70;;;4.70;99.90;;;;;;5063385;28;20205;-81
2023/12/14 12:25:27;;;;;;;10.40;5.50;;;4.90;99.90;;;;;;5068197;28;20195;-81
2023/12/14 12:27:54;;;;;;;10.37;6.17;;;4.70;99.90;;;;;;5068267;28;20230;-81
2023/12/14 12:30:21;;;;;;;11.43;6.10;;;4.70;99.90;;;;;;5064404;28;20279;-80
2023/12/14 12:32:48;;;;;;;12.53;7.17;;;4.70;99.90;;;;;;5065180;28;20261;-80
2023/12/14 12:35:15;;;;;;;12.93;7.23;;;4.70;99.90;;;;;;5066895;28;20310;-80
2023/12/14 12:37:44;;;;;;;11.27;5.77;;;4.70;99.90;;;;;;5068605;28;20208;-81
2023/12/14 12:40:11;;;;;;;11.23;6.60;;;4.70;99.90;;;;;;5071347;28;20688;-81
2023/12/14 12:42:38;;;;;;;11.10;6.33;;;4.70;99.90;;;;;;5070609;28;20576;-81
2023/12/14 12:45:06;;;;;;;8.83;5.73;;;4.80;99.90;;;;;;5068795;28;20209;-80
2023/12/14 12:47:33;;;;;;;10.33;6.03;;;4.70;99.90;;;;;;5073190;28;20229;-80
2023/12/14 12:50:00;;;;;;;11.17;6.50;;;4.80;99.90;;;;;;5072157;28;20614;-80